sensor_id;sensor_type;location;lat;lon;timestamp;P1;durP1;ratioP1;P2;durP2;ratioP2
3865;SDS011;1948;53.250;10.412;2023-03-21T00:01:52;45.03;;;29.60;;
3865;SDS011;1948;53.250;10.412;2023-03-21T00:04:25;45.33;;;30.03;;
3865;SDS011;1948;53.250;10.412;2023-03-21T00:07:03;44.67;;;29.17;;
3865;SDS011;1948;53.250;10.412;2023-03-21T00:09:30;40.90;;;29.30;;
3865;SDS011;1948;53.250;10.412;2023-03-21T00:11:57;51.60;;;30.93;;
3865;SDS011;1948;53.250;10.412;2023-03-21T00:14:27;47.20;;;29.37;;
3865;SDS011;1948;53.250;10.412;2023-03-21T00:16:56;50.80;;;29.77;;
3865;SDS011;1948;53.250;10.412;2023-03-21T00:19:23;47.93;;;30.63;;
3865;SDS011;1948;53.250;10.412;2023-03-21T00:21:51;51.20;;;30.80;;
3865;SDS011;1948;53.250;10.412;2023-03-21T00:24:33;47.70;;;29.87;;
3865;SDS011;1948;53.250;10.412;2023-03-21T00:27:01;49.10;;;31.67;;
3865;SDS011;1948;53.250;10.412;2023-03-21T00:29:48;50.93;;;30.23;;
3865;SDS011;1948;53.250;10.412;2023-03-21T00:32:19;67.63;;;31.57;;
3865;SDS011;1948;53.250;10.412;2023-03-21T00:34:47;41.90;;;29.23;;
3865;SDS011;1948;53.250;10.412;2023-03-21T00:37:37;42.67;;;28.03;;
3865;SDS011;1948;53.250;10.412;2023-03-21T00:40:05;44.57;;;29.37;;
3865;SDS011;1948;53.250;10.412;2023-03-21T00:42:57;49.67;;;29.50;;
3865;SDS011;1948;53.250;10.412;2023-03-21T00:45:24;43.90;;;30.27;;
3865;SDS011;1948;53.250;10.412;2023-03-21T00:47:54;41.50;;;27.70;;
3865;SDS011;1948;53.250;10.412;2023-03-21T00:50:26;44.50;;;28.77;;
3865;SDS011;1948;53.250;10.412;2023-03-21T00:52:53;40.00;;;28.23;;
3865;SDS011;1948;53.250;10.412;2023-03-21T00:55:20;43.47;;;29.47;;
3865;SDS011;1948;53.250;10.412;2023-03-21T00:57:49;42.00;;;27.60;;
3865;SDS011;1948;53.250;10.412;2023-03-21T01:00:29;46.17;;;29.90;;
3865;SDS011;1948;53.250;10.412;2023-03-21T01:02:58;47.13;;;28.77;;
3865;SDS011;1948;53.250;10.412;2023-03-21T01:05:51;49.47;;;29.07;;
3865;SDS011;1948;53.250;10.412;2023-03-21T01:08:30;43.43;;;29.33;;
3865;SDS011;1948;53.250;10.412;2023-03-21T01:11:19;47.77;;;28.50;;
3865;SDS011;1948;53.250;10.412;2023-03-21T01:13:54;42.10;;;29.30;;
3865;SDS011;1948;53.250;10.412;2023-03-21T01:16:40;44.60;;;28.93;;
3865;SDS011;1948;53.250;10.412;2023-03-21T01:19:07;43.27;;;27.87;;
3865;SDS011;1948;53.250;10.412;2023-03-21T01:21:50;44.03;;;28.50;;
3865;SDS011;1948;53.250;10.412;2023-03-21T01:24:16;41.70;;;29.53;;
3865;SDS011;1948;53.250;10.412;2023-03-21T01:26:50;44.37;;;27.67;;
3865;SDS011;1948;53.250;10.412;2023-03-21T01:29:17;42.83;;;27.73;;
3865;SDS011;1948;53.250;10.412;2023-03-21T01:31:47;45.50;;;30.10;;
3865;SDS011;1948;53.250;10.412;2023-03-21T01:34:16;40.77;;;27.97;;
3865;SDS011;1948;53.250;10.412;2023-03-21T01:36:42;44.00;;;27.70;;
3865;SDS011;1948;53.250;10.412;2023-03-21T01:39:12;44.97;;;28.73;;
3865;SDS011;1948;53.250;10.412;2023-03-21T01:41:40;43.87;;;28.00;;
3865;SDS011;1948;53.250;10.412;2023-03-21T01:44:13;46.47;;;29.13;;
3865;SDS011;1948;53.250;10.412;2023-03-21T01:46:46;37.10;;;26.90;;
3865;SDS011;1948;53.250;10.412;2023-03-21T01:49:39;35.50;;;26.60;;
3865;SDS011;1948;53.250;10.412;2023-03-21T01:52:12;43.20;;;27.73;;
3865;SDS011;1948;53.250;10.412;2023-03-21T01:55:02;38.13;;;28.43;;
3865;SDS011;1948;53.250;10.412;2023-03-21T01:57:39;44.03;;;28.23;;
3865;SDS011;1948;53.250;10.412;2023-03-21T02:00:30;42.83;;;27.53;;
3865;SDS011;1948;53.250;10.412;2023-03-21T02:02:59;46.47;;;28.37;;
3865;SDS011;1948;53.250;10.412;2023-03-21T02:05:51;36.60;;;26.67;;
3865;SDS011;1948;53.250;10.412;2023-03-21T02:08:31;35.90;;;25.90;;
3865;SDS011;1948;53.250;10.412;2023-03-21T02:11:05;39.53;;;26.90;;
3865;SDS011;1948;53.250;10.412;2023-03-21T02:13:35;36.27;;;26.37;;
3865;SDS011;1948;53.250;10.412;2023-03-21T02:27:24;37.73;;;27.60;;
3865;SDS011;1948;53.250;10.412;2023-03-21T02:41:45;36.93;;;27.13;;
3865;SDS011;1948;53.250;10.412;2023-03-21T02:44:36;38.10;;;26.37;;
3865;SDS011;1948;53.250;10.412;2023-03-21T02:47:38;43.20;;;28.50;;
3865;SDS011;1948;53.250;10.412;2023-03-21T02:50:31;39.30;;;26.97;;
3865;SDS011;1948;53.250;10.412;2023-03-21T02:53:05;42.43;;;28.50;;
3865;SDS011;1948;53.250;10.412;2023-03-21T02:55:35;38.50;;;28.40;;
3865;SDS011;1948;53.250;10.412;2023-03-21T02:58:07;35.43;;;26.03;;
3865;SDS011;1948;53.250;10.412;2023-03-21T03:00:39;45.17;;;28.93;;
3865;SDS011;1948;53.250;10.412;2023-03-21T03:03:08;39.03;;;27.67;;
3865;SDS011;1948;53.250;10.412;2023-03-21T03:05:56;38.63;;;27.87;;
3865;SDS011;1948;53.250;10.412;2023-03-21T03:11:25;39.80;;;27.40;;
3865;SDS011;1948;53.250;10.412;2023-03-21T03:17:34;47.80;;;27.20;;
3865;SDS011;1948;53.250;10.412;2023-03-21T03:23:41;38.50;;;27.57;;
3865;SDS011;1948;53.250;10.412;2023-03-21T03:28:54;38.13;;;26.17;;
3865;SDS011;1948;53.250;10.412;2023-03-21T03:31:35;42.40;;;28.00;;
3865;SDS011;1948;53.250;10.412;2023-03-21T03:34:09;37.57;;;26.20;;
3865;SDS011;1948;53.250;10.412;2023-03-21T03:36:41;36.73;;;26.57;;
3865;SDS011;1948;53.250;10.412;2023-03-21T03:39:16;38.53;;;28.50;;
3865;SDS011;1948;53.250;10.412;2023-03-21T03:41:44;46.40;;;28.00;;
3865;SDS011;1948;53.250;10.412;2023-03-21T03:44:53;40.13;;;28.53;;
3865;SDS011;1948;53.250;10.412;2023-03-21T03:52:59;44.73;;;29.50;;
3865;SDS011;1948;53.250;10.412;2023-03-21T03:55:58;44.23;;;29.97;;
3865;SDS011;1948;53.250;10.412;2023-03-21T03:58:26;41.60;;;28.70;;
3865;SDS011;1948;53.250;10.412;2023-03-21T04:01:10;46.97;;;30.23;;
3865;SDS011;1948;53.250;10.412;2023-03-21T04:03:40;46.80;;;30.27;;
3865;SDS011;1948;53.250;10.412;2023-03-21T04:06:24;45.77;;;31.23;;
3865;SDS011;1948;53.250;10.412;2023-03-21T04:08:55;44.17;;;30.23;;
3865;SDS011;1948;53.250;10.412;2023-03-21T04:11:28;45.77;;;30.93;;
3865;SDS011;1948;53.250;10.412;2023-03-21T04:13:57;47.07;;;29.60;;
3865;SDS011;1948;53.250;10.412;2023-03-21T04:16:24;41.97;;;29.30;;
3865;SDS011;1948;53.250;10.412;2023-03-21T04:18:51;44.10;;;29.50;;
3865;SDS011;1948;53.250;10.412;2023-03-21T04:21:18;51.63;;;30.43;;
3865;SDS011;1948;53.250;10.412;2023-03-21T04:23:48;45.00;;;30.67;;
3865;SDS011;1948;53.250;10.412;2023-03-21T04:26:18;54.07;;;32.90;;
3865;SDS011;1948;53.250;10.412;2023-03-21T04:28:48;44.37;;;30.07;;
3865;SDS011;1948;53.250;10.412;2023-03-21T04:31:16;47.70;;;30.70;;
3865;SDS011;1948;53.250;10.412;2023-03-21T04:33:50;51.53;;;31.73;;
3865;SDS011;1948;53.250;10.412;2023-03-21T04:36:18;50.60;;;31.23;;
3865;SDS011;1948;53.250;10.412;2023-03-21T04:38:56;49.37;;;31.20;;
3865;SDS011;1948;53.250;10.412;2023-03-21T04:41:27;51.50;;;32.07;;
3865;SDS011;1948;53.250;10.412;2023-03-21T04:43:55;53.73;;;33.20;;
3865;SDS011;1948;53.250;10.412;2023-03-21T04:46:24;55.00;;;33.17;;
3865;SDS011;1948;53.250;10.412;2023-03-21T04:48:51;55.10;;;34.23;;
3865;SDS011;1948;53.250;10.412;2023-03-21T04:51:18;50.77;;;32.50;;
3865;SDS011;1948;53.250;10.412;2023-03-21T04:53:45;50.17;;;32.53;;
3865;SDS011;1948;53.250;10.412;2023-03-21T04:56:14;48.80;;;31.73;;
3865;SDS011;1948;53.250;10.412;2023-03-21T04:58:41;58.37;;;32.90;;
3865;SDS011;1948;53.250;10.412;2023-03-21T05:01:11;58.57;;;34.00;;
3865;SDS011;1948;53.250;10.412;2023-03-21T05:03:39;57.97;;;34.07;;
3865;SDS011;1948;53.250;10.412;2023-03-21T05:06:09;59.67;;;34.47;;
3865;SDS011;1948;53.250;10.412;2023-03-21T05:08:41;56.07;;;32.80;;
3865;SDS011;1948;53.250;10.412;2023-03-21T05:11:10;60.03;;;35.20;;
3865;SDS011;1948;53.250;10.412;2023-03-21T05:13:37;57.40;;;35.87;;
3865;SDS011;1948;53.250;10.412;2023-03-21T05:16:04;54.80;;;35.60;;
3865;SDS011;1948;53.250;10.412;2023-03-21T05:18:35;62.50;;;35.63;;
3865;SDS011;1948;53.250;10.412;2023-03-21T05:21:04;59.70;;;36.50;;
3865;SDS011;1948;53.250;10.412;2023-03-21T05:23:37;61.33;;;35.30;;
3865;SDS011;1948;53.250;10.412;2023-03-21T05:26:07;64.13;;;36.77;;
3865;SDS011;1948;53.250;10.412;2023-03-21T05:28:35;66.17;;;38.10;;
3865;SDS011;1948;53.250;10.412;2023-03-21T05:31:02;67.30;;;38.50;;
3865;SDS011;1948;53.250;10.412;2023-03-21T05:33:30;69.40;;;35.30;;
3865;SDS011;1948;53.250;10.412;2023-03-21T05:35:59;67.93;;;39.20;;
3865;SDS011;1948;53.250;10.412;2023-03-21T05:38:29;59.57;;;37.50;;
3865;SDS011;1948;53.250;10.412;2023-03-21T05:40:56;68.63;;;38.63;;
3865;SDS011;1948;53.250;10.412;2023-03-21T05:43:26;60.80;;;38.37;;
3865;SDS011;1948;53.250;10.412;2023-03-21T05:45:54;60.70;;;37.00;;
3865;SDS011;1948;53.250;10.412;2023-03-21T05:48:21;65.70;;;37.80;;
3865;SDS011;1948;53.250;10.412;2023-03-21T05:50:50;73.43;;;36.40;;
3865;SDS011;1948;53.250;10.412;2023-03-21T05:53:19;66.37;;;38.80;;
3865;SDS011;1948;53.250;10.412;2023-03-21T05:55:48;66.33;;;37.90;;
3865;SDS011;1948;53.250;10.412;2023-03-21T05:58:15;65.70;;;37.73;;
3865;SDS011;1948;53.250;10.412;2023-03-21T06:00:42;64.30;;;39.30;;
3865;SDS011;1948;53.250;10.412;2023-03-21T06:03:13;66.20;;;36.63;;
3865;SDS011;1948;53.250;10.412;2023-03-21T06:05:45;61.77;;;37.03;;
3865;SDS011;1948;53.250;10.412;2023-03-21T06:08:14;72.97;;;39.60;;
3865;SDS011;1948;53.250;10.412;2023-03-21T06:10:43;66.87;;;37.70;;
3865;SDS011;1948;53.250;10.412;2023-03-21T06:13:15;67.87;;;38.50;;
3865;SDS011;1948;53.250;10.412;2023-03-21T06:15:42;70.30;;;40.50;;
3865;SDS011;1948;53.250;10.412;2023-03-21T06:18:09;64.47;;;39.40;;
3865;SDS011;1948;53.250;10.412;2023-03-21T06:20:36;67.37;;;39.60;;
3865;SDS011;1948;53.250;10.412;2023-03-21T06:23:05;68.57;;;38.80;;
3865;SDS011;1948;53.250;10.412;2023-03-21T06:25:34;68.13;;;38.13;;
3865;SDS011;1948;53.250;10.412;2023-03-21T06:28:05;70.97;;;40.80;;
3865;SDS011;1948;53.250;10.412;2023-03-21T06:30:32;69.47;;;40.30;;
3865;SDS011;1948;53.250;10.412;2023-03-21T06:33:01;80.20;;;42.70;;
3865;SDS011;1948;53.250;10.412;2023-03-21T06:35:28;75.30;;;43.13;;
3865;SDS011;1948;53.250;10.412;2023-03-21T06:37:58;73.57;;;42.47;;
3865;SDS011;1948;53.250;10.412;2023-03-21T06:40:30;72.93;;;39.97;;
3865;SDS011;1948;53.250;10.412;2023-03-21T06:42:57;79.10;;;41.70;;
3865;SDS011;1948;53.250;10.412;2023-03-21T06:45:29;72.77;;;42.17;;
3865;SDS011;1948;53.250;10.412;2023-03-21T06:47:56;66.67;;;38.40;;
3865;SDS011;1948;53.250;10.412;2023-03-21T06:50:23;72.17;;;41.97;;
3865;SDS011;1948;53.250;10.412;2023-03-21T06:52:52;76.57;;;41.50;;
3865;SDS011;1948;53.250;10.412;2023-03-21T06:55:19;70.60;;;41.43;;
3865;SDS011;1948;53.250;10.412;2023-03-21T06:57:54;65.47;;;39.47;;
3865;SDS011;1948;53.250;10.412;2023-03-21T07:00:22;72.20;;;40.57;;
3865;SDS011;1948;53.250;10.412;2023-03-21T07:02:52;69.23;;;40.10;;
3865;SDS011;1948;53.250;10.412;2023-03-21T07:05:19;78.53;;;40.77;;
3865;SDS011;1948;53.250;10.412;2023-03-21T07:07:48;69.87;;;38.97;;
3865;SDS011;1948;53.250;10.412;2023-03-21T07:10:18;68.03;;;40.40;;
3865;SDS011;1948;53.250;10.412;2023-03-21T07:12:47;72.33;;;41.47;;
3865;SDS011;1948;53.250;10.412;2023-03-21T07:15:14;73.80;;;42.10;;
3865;SDS011;1948;53.250;10.412;2023-03-21T07:17:44;74.30;;;39.87;;
3865;SDS011;1948;53.250;10.412;2023-03-21T07:20:11;75.60;;;40.97;;
3865;SDS011;1948;53.250;10.412;2023-03-21T07:22:38;72.97;;;41.57;;
3865;SDS011;1948;53.250;10.412;2023-03-21T07:25:08;65.73;;;39.97;;
3865;SDS011;1948;53.250;10.412;2023-03-21T07:27:38;74.10;;;41.20;;
3865;SDS011;1948;53.250;10.412;2023-03-21T07:30:07;72.50;;;41.67;;
3865;SDS011;1948;53.250;10.412;2023-03-21T07:32:35;80.73;;;40.43;;
3865;SDS011;1948;53.250;10.412;2023-03-21T07:35:03;73.13;;;40.80;;
3865;SDS011;1948;53.250;10.412;2023-03-21T07:37:32;64.10;;;38.40;;
3865;SDS011;1948;53.250;10.412;2023-03-21T07:40:00;70.63;;;40.30;;
3865;SDS011;1948;53.250;10.412;2023-03-21T07:42:27;74.63;;;39.80;;
3865;SDS011;1948;53.250;10.412;2023-03-21T07:45:00;67.27;;;39.33;;
3865;SDS011;1948;53.250;10.412;2023-03-21T07:47:27;73.80;;;40.33;;
3865;SDS011;1948;53.250;10.412;2023-03-21T07:49:57;65.40;;;38.77;;
3865;SDS011;1948;53.250;10.412;2023-03-21T07:52:24;69.43;;;39.10;;
3865;SDS011;1948;53.250;10.412;2023-03-21T07:54:53;68.70;;;37.57;;
3865;SDS011;1948;53.250;10.412;2023-03-21T07:57:26;71.03;;;38.93;;
3865;SDS011;1948;53.250;10.412;2023-03-21T07:59:53;60.93;;;37.57;;
3865;SDS011;1948;53.250;10.412;2023-03-21T08:02:22;58.40;;;36.40;;
3865;SDS011;1948;53.250;10.412;2023-03-21T08:04:49;62.00;;;35.57;;
3865;SDS011;1948;53.250;10.412;2023-03-21T08:07:19;56.67;;;34.63;;
3865;SDS011;1948;53.250;10.412;2023-03-21T08:09:48;57.97;;;35.20;;
3865;SDS011;1948;53.250;10.412;2023-03-21T08:12:15;64.53;;;35.77;;
3865;SDS011;1948;53.250;10.412;2023-03-21T08:14:42;55.63;;;32.77;;
3865;SDS011;1948;53.250;10.412;2023-03-21T08:17:09;46.60;;;32.30;;
3865;SDS011;1948;53.250;10.412;2023-03-21T08:19:36;51.20;;;31.40;;
3865;SDS011;1948;53.250;10.412;2023-03-21T08:22:05;46.57;;;30.47;;
3865;SDS011;1948;53.250;10.412;2023-03-21T08:24:36;46.37;;;30.23;;
3865;SDS011;1948;53.250;10.412;2023-03-21T08:27:06;50.67;;;31.40;;
3865;SDS011;1948;53.250;10.412;2023-03-21T08:29:32;52.13;;;31.90;;
3865;SDS011;1948;53.250;10.412;2023-03-21T08:32:00;42.57;;;29.07;;
3865;SDS011;1948;53.250;10.412;2023-03-21T08:34:27;46.13;;;31.47;;
3865;SDS011;1948;53.250;10.412;2023-03-21T08:36:54;46.40;;;30.27;;
3865;SDS011;1948;53.250;10.412;2023-03-21T08:39:20;39.93;;;27.10;;
3865;SDS011;1948;53.250;10.412;2023-03-21T08:41:49;41.47;;;29.20;;
3865;SDS011;1948;53.250;10.412;2023-03-21T08:44:16;41.43;;;29.03;;
3865;SDS011;1948;53.250;10.412;2023-03-21T08:46:47;42.50;;;27.30;;
3865;SDS011;1948;53.250;10.412;2023-03-21T08:49:17;37.97;;;27.50;;
3865;SDS011;1948;53.250;10.412;2023-03-21T08:51:49;35.03;;;26.67;;
3865;SDS011;1948;53.250;10.412;2023-03-21T08:54:25;38.27;;;26.90;;
3865;SDS011;1948;53.250;10.412;2023-03-21T08:56:56;34.53;;;24.30;;
3865;SDS011;1948;53.250;10.412;2023-03-21T08:59:24;38.90;;;26.30;;
3865;SDS011;1948;53.250;10.412;2023-03-21T09:01:53;38.77;;;26.20;;
3865;SDS011;1948;53.250;10.412;2023-03-21T09:04:23;39.73;;;26.80;;
3865;SDS011;1948;53.250;10.412;2023-03-21T09:06:51;34.47;;;24.40;;
3865;SDS011;1948;53.250;10.412;2023-03-21T09:09:21;35.63;;;25.63;;
3865;SDS011;1948;53.250;10.412;2023-03-21T09:11:52;32.43;;;23.70;;
3865;SDS011;1948;53.250;10.412;2023-03-21T09:14:19;31.43;;;23.43;;
3865;SDS011;1948;53.250;10.412;2023-03-21T09:16:53;33.83;;;24.70;;
3865;SDS011;1948;53.250;10.412;2023-03-21T09:19:20;39.63;;;24.20;;
3865;SDS011;1948;53.250;10.412;2023-03-21T09:21:49;32.00;;;23.30;;
3865;SDS011;1948;53.250;10.412;2023-03-21T09:24:19;34.20;;;23.10;;
3865;SDS011;1948;53.250;10.412;2023-03-21T09:26:47;34.47;;;25.23;;
3865;SDS011;1948;53.250;10.412;2023-03-21T09:29:18;35.20;;;24.50;;
3865;SDS011;1948;53.250;10.412;2023-03-21T09:31:46;36.37;;;25.73;;
3865;SDS011;1948;53.250;10.412;2023-03-21T09:34:13;39.43;;;25.03;;
3865;SDS011;1948;53.250;10.412;2023-03-21T09:36:41;38.70;;;25.50;;
3865;SDS011;1948;53.250;10.412;2023-03-21T09:39:13;41.20;;;26.63;;
3865;SDS011;1948;53.250;10.412;2023-03-21T09:42:01;36.63;;;25.37;;
3865;SDS011;1948;53.250;10.412;2023-03-21T09:47:46;40.83;;;26.60;;
3865;SDS011;1948;53.250;10.412;2023-03-21T09:50:21;38.77;;;25.23;;
3865;SDS011;1948;53.250;10.412;2023-03-21T09:52:57;44.00;;;27.70;;
3865;SDS011;1948;53.250;10.412;2023-03-21T09:55:31;44.63;;;26.87;;
3865;SDS011;1948;53.250;10.412;2023-03-21T10:00:35;44.70;;;28.90;;
3865;SDS011;1948;53.250;10.412;2023-03-21T10:03:18;45.97;;;28.33;;
3865;SDS011;1948;53.250;10.412;2023-03-21T10:05:54;42.43;;;27.63;;
3865;SDS011;1948;53.250;10.412;2023-03-21T10:11:06;42.17;;;26.60;;
3865;SDS011;1948;53.250;10.412;2023-03-21T10:13:45;34.17;;;24.27;;
3865;SDS011;1948;53.250;10.412;2023-03-21T10:16:43;36.63;;;25.77;;
3865;SDS011;1948;53.250;10.412;2023-03-21T10:19:17;42.03;;;25.50;;
3865;SDS011;1948;53.250;10.412;2023-03-21T10:21:46;36.17;;;24.20;;
3865;SDS011;1948;53.250;10.412;2023-03-21T10:24:28;33.80;;;22.97;;
3865;SDS011;1948;53.250;10.412;2023-03-21T10:26:58;43.77;;;23.50;;
3865;SDS011;1948;53.250;10.412;2023-03-21T10:29:29;30.27;;;22.70;;
3865;SDS011;1948;53.250;10.412;2023-03-21T10:32:14;29.70;;;22.33;;
3865;SDS011;1948;53.250;10.412;2023-03-21T10:34:44;29.70;;;21.20;;
3865;SDS011;1948;53.250;10.412;2023-03-21T10:37:21;33.33;;;22.27;;
3865;SDS011;1948;53.250;10.412;2023-03-21T10:39:51;31.17;;;20.53;;
3865;SDS011;1948;53.250;10.412;2023-03-21T10:42:27;34.30;;;21.30;;
3865;SDS011;1948;53.250;10.412;2023-03-21T10:44:58;28.60;;;20.63;;
3865;SDS011;1948;53.250;10.412;2023-03-21T10:47:34;30.03;;;22.20;;
3865;SDS011;1948;53.250;10.412;2023-03-21T10:50:07;37.23;;;21.97;;
3865;SDS011;1948;53.250;10.412;2023-03-21T10:52:52;29.97;;;21.67;;
3865;SDS011;1948;53.250;10.412;2023-03-21T10:55:27;31.10;;;22.23;;
3865;SDS011;1948;53.250;10.412;2023-03-21T10:58:05;28.90;;;21.27;;
3865;SDS011;1948;53.250;10.412;2023-03-21T11:00:44;32.43;;;21.33;;
3865;SDS011;1948;53.250;10.412;2023-03-21T11:03:18;34.27;;;21.07;;
3865;SDS011;1948;53.250;10.412;2023-03-21T11:05:54;27.13;;;19.73;;
3865;SDS011;1948;53.250;10.412;2023-03-21T11:08:42;38.23;;;20.10;;
3865;SDS011;1948;53.250;10.412;2023-03-21T11:13:59;27.53;;;18.60;;
3865;SDS011;1948;53.250;10.412;2023-03-21T11:16:38;23.63;;;18.23;;
3865;SDS011;1948;53.250;10.412;2023-03-21T11:19:16;27.30;;;18.77;;
3865;SDS011;1948;53.250;10.412;2023-03-21T11:21:55;38.53;;;19.07;;
3865;SDS011;1948;53.250;10.412;2023-03-21T11:24:29;40.03;;;19.43;;
3865;SDS011;1948;53.250;10.412;2023-03-21T11:26:59;29.73;;;19.40;;
3865;SDS011;1948;53.250;10.412;2023-03-21T11:29:39;28.10;;;19.77;;
3865;SDS011;1948;53.250;10.412;2023-03-21T11:43:02;35.03;;;21.07;;
3865;SDS011;1948;53.250;10.412;2023-03-21T11:45:54;27.63;;;19.60;;
3865;SDS011;1948;53.250;10.412;2023-03-21T11:48:22;24.60;;;18.00;;
3865;SDS011;1948;53.250;10.412;2023-03-21T11:50:51;28.37;;;18.93;;
3865;SDS011;1948;53.250;10.412;2023-03-21T12:01:59;28.80;;;19.00;;
3865;SDS011;1948;53.250;10.412;2023-03-21T12:04:41;38.70;;;19.93;;
3865;SDS011;1948;53.250;10.412;2023-03-21T12:18:58;25.50;;;16.30;;
3865;SDS011;1948;53.250;10.412;2023-03-21T12:22:04;20.10;;;14.93;;
3865;SDS011;1948;53.250;10.412;2023-03-21T12:24:40;21.70;;;16.00;;
3865;SDS011;1948;53.250;10.412;2023-03-21T12:27:34;20.60;;;15.30;;
3865;SDS011;1948;53.250;10.412;2023-03-21T12:30:32;23.60;;;15.47;;
3865;SDS011;1948;53.250;10.412;2023-03-21T12:39:07;31.47;;;15.60;;
3865;SDS011;1948;53.250;10.412;2023-03-21T12:41:56;22.60;;;15.70;;
3865;SDS011;1948;53.250;10.412;2023-03-21T12:44:38;19.37;;;15.30;;
3865;SDS011;1948;53.250;10.412;2023-03-21T12:47:12;24.93;;;15.87;;
3865;SDS011;1948;53.250;10.412;2023-03-21T12:49:46;28.37;;;16.57;;
3865;SDS011;1948;53.250;10.412;2023-03-21T12:52:43;23.57;;;15.03;;
3865;SDS011;1948;53.250;10.412;2023-03-21T12:57:55;16.97;;;14.40;;
3865;SDS011;1948;53.250;10.412;2023-03-21T13:00:34;20.80;;;14.33;;
3865;SDS011;1948;53.250;10.412;2023-03-21T13:08:40;21.07;;;14.43;;
3865;SDS011;1948;53.250;10.412;2023-03-21T13:11:28;18.30;;;13.43;;
3865;SDS011;1948;53.250;10.412;2023-03-21T13:24:49;22.73;;;14.47;;
3865;SDS011;1948;53.250;10.412;2023-03-21T13:27:30;22.77;;;14.37;;
3865;SDS011;1948;53.250;10.412;2023-03-21T13:30:16;16.90;;;12.97;;
3865;SDS011;1948;53.250;10.412;2023-03-21T13:33:35;19.90;;;13.50;;
3865;SDS011;1948;53.250;10.412;2023-03-21T13:35:58;21.63;;;13.87;;
3865;SDS011;1948;53.250;10.412;2023-03-21T13:38:32;21.63;;;14.20;;
3865;SDS011;1948;53.250;10.412;2023-03-21T13:41:08;22.93;;;14.30;;
3865;SDS011;1948;53.250;10.412;2023-03-21T13:59:10;21.17;;;14.43;;
3865;SDS011;1948;53.250;10.412;2023-03-21T14:05:00;16.20;;;12.50;;
3865;SDS011;1948;53.250;10.412;2023-03-21T14:07:42;18.20;;;13.30;;
3865;SDS011;1948;53.250;10.412;2023-03-21T14:10:19;18.57;;;12.30;;
3865;SDS011;1948;53.250;10.412;2023-03-21T14:13:16;19.50;;;13.50;;
3865;SDS011;1948;53.250;10.412;2023-03-21T14:15:51;16.27;;;12.50;;
3865;SDS011;1948;53.250;10.412;2023-03-21T14:18:23;25.13;;;13.57;;
3865;SDS011;1948;53.250;10.412;2023-03-21T14:21:12;70.60;;;18.03;;
3865;SDS011;1948;53.250;10.412;2023-03-21T14:26:34;19.27;;;12.80;;
3865;SDS011;1948;53.250;10.412;2023-03-21T14:29:06;21.00;;;12.23;;
3865;SDS011;1948;53.250;10.412;2023-03-21T14:31:54;15.70;;;11.70;;
3865;SDS011;1948;53.250;10.412;2023-03-21T14:34:25;17.57;;;13.10;;
3865;SDS011;1948;53.250;10.412;2023-03-21T14:37:00;13.10;;;11.70;;
3865;SDS011;1948;53.250;10.412;2023-03-21T14:39:30;18.10;;;12.17;;
3865;SDS011;1948;53.250;10.412;2023-03-21T14:44:38;18.67;;;12.53;;
3865;SDS011;1948;53.250;10.412;2023-03-21T14:47:24;15.87;;;12.50;;
3865;SDS011;1948;53.250;10.412;2023-03-21T14:49:55;19.60;;;13.37;;
3865;SDS011;1948;53.250;10.412;2023-03-21T14:52:27;20.23;;;13.37;;
3865;SDS011;1948;53.250;10.412;2023-03-21T14:54:56;19.00;;;13.47;;
3865;SDS011;1948;53.250;10.412;2023-03-21T14:57:28;16.87;;;13.23;;
3865;SDS011;1948;53.250;10.412;2023-03-21T14:59:59;17.13;;;13.63;;
3865;SDS011;1948;53.250;10.412;2023-03-21T15:02:36;19.40;;;13.53;;
3865;SDS011;1948;53.250;10.412;2023-03-21T15:05:09;23.00;;;13.53;;
3865;SDS011;1948;53.250;10.412;2023-03-21T15:07:52;25.67;;;14.30;;
3865;SDS011;1948;53.250;10.412;2023-03-21T15:10:27;21.23;;;13.20;;
3865;SDS011;1948;53.250;10.412;2023-03-21T15:12:58;29.03;;;14.10;;
3865;SDS011;1948;53.250;10.412;2023-03-21T15:15:28;33.23;;;14.20;;
3865;SDS011;1948;53.250;10.412;2023-03-21T15:18:00;16.93;;;12.97;;
3865;SDS011;1948;53.250;10.412;2023-03-21T15:20:33;15.20;;;13.07;;
3865;SDS011;1948;53.250;10.412;2023-03-21T15:23:06;16.47;;;11.80;;
3865;SDS011;1948;53.250;10.412;2023-03-21T15:25:44;16.30;;;11.93;;
3865;SDS011;1948;53.250;10.412;2023-03-21T15:28:12;13.27;;;11.17;;
3865;SDS011;1948;53.250;10.412;2023-03-21T15:30:45;16.57;;;11.80;;
3865;SDS011;1948;53.250;10.412;2023-03-21T15:33:19;13.73;;;10.47;;
3865;SDS011;1948;53.250;10.412;2023-03-21T15:35:51;13.27;;;10.83;;
3865;SDS011;1948;53.250;10.412;2023-03-21T15:41:12;15.53;;;9.67;;
3865;SDS011;1948;53.250;10.412;2023-03-21T15:43:42;10.67;;;9.40;;
3865;SDS011;1948;53.250;10.412;2023-03-21T15:46:14;14.97;;;8.93;;
3865;SDS011;1948;53.250;10.412;2023-03-21T15:48:44;16.67;;;9.27;;
3865;SDS011;1948;53.250;10.412;2023-03-21T15:51:20;12.53;;;9.77;;
3865;SDS011;1948;53.250;10.412;2023-03-21T15:53:50;14.17;;;10.40;;
3865;SDS011;1948;53.250;10.412;2023-03-21T15:56:21;12.20;;;10.90;;
3865;SDS011;1948;53.250;10.412;2023-03-21T15:59:00;21.87;;;14.10;;
3865;SDS011;1948;53.250;10.412;2023-03-21T16:01:29;17.67;;;11.60;;
3865;SDS011;1948;53.250;10.412;2023-03-21T16:04:08;18.37;;;11.43;;
3865;SDS011;1948;53.250;10.412;2023-03-21T16:06:45;21.10;;;14.50;;
3865;SDS011;1948;53.250;10.412;2023-03-21T16:09:42;18.70;;;10.83;;
3865;SDS011;1948;53.250;10.412;2023-03-21T16:12:13;15.00;;;11.00;;
3865;SDS011;1948;53.250;10.412;2023-03-21T16:14:44;14.40;;;11.37;;
3865;SDS011;1948;53.250;10.412;2023-03-21T16:17:25;13.17;;;10.63;;
3865;SDS011;1948;53.250;10.412;2023-03-21T16:20:00;15.83;;;10.63;;
3865;SDS011;1948;53.250;10.412;2023-03-21T16:22:29;14.87;;;9.73;;
3865;SDS011;1948;53.250;10.412;2023-03-21T16:25:02;12.23;;;10.13;;
3865;SDS011;1948;53.250;10.412;2023-03-21T16:27:31;13.90;;;9.80;;
3865;SDS011;1948;53.250;10.412;2023-03-21T16:29:58;12.23;;;10.93;;
3865;SDS011;1948;53.250;10.412;2023-03-21T16:32:26;10.90;;;9.23;;
3865;SDS011;1948;53.250;10.412;2023-03-21T16:34:53;11.17;;;10.03;;
3865;SDS011;1948;53.250;10.412;2023-03-21T16:37:21;10.70;;;9.67;;
3865;SDS011;1948;53.250;10.412;2023-03-21T16:39:48;10.40;;;9.13;;
3865;SDS011;1948;53.250;10.412;2023-03-21T16:42:17;9.37;;;8.50;;
3865;SDS011;1948;53.250;10.412;2023-03-21T16:44:44;14.10;;;9.97;;
3865;SDS011;1948;53.250;10.412;2023-03-21T16:47:14;16.33;;;9.20;;
3865;SDS011;1948;53.250;10.412;2023-03-21T16:49:48;9.20;;;8.27;;
3865;SDS011;1948;53.250;10.412;2023-03-21T16:52:15;9.43;;;8.63;;
3865;SDS011;1948;53.250;10.412;2023-03-21T16:54:42;15.20;;;9.17;;
3865;SDS011;1948;53.250;10.412;2023-03-21T16:57:23;10.90;;;8.17;;
3865;SDS011;1948;53.250;10.412;2023-03-21T16:59:56;11.63;;;9.30;;
3865;SDS011;1948;53.250;10.412;2023-03-21T17:02:25;11.63;;;9.40;;
3865;SDS011;1948;53.250;10.412;2023-03-21T17:04:52;15.40;;;9.60;;
3865;SDS011;1948;53.250;10.412;2023-03-21T17:07:19;8.00;;;7.30;;
3865;SDS011;1948;53.250;10.412;2023-03-21T17:09:49;12.57;;;8.30;;
3865;SDS011;1948;53.250;10.412;2023-03-21T17:12:20;12.60;;;8.77;;
3865;SDS011;1948;53.250;10.412;2023-03-21T17:14:47;12.63;;;9.20;;
3865;SDS011;1948;53.250;10.412;2023-03-21T17:17:15;16.33;;;10.03;;
3865;SDS011;1948;53.250;10.412;2023-03-21T17:19:42;15.83;;;10.30;;
3865;SDS011;1948;53.250;10.412;2023-03-21T17:22:09;11.57;;;10.27;;
3865;SDS011;1948;53.250;10.412;2023-03-21T17:24:39;12.37;;;10.23;;
3865;SDS011;1948;53.250;10.412;2023-03-21T17:27:10;14.30;;;10.30;;